aviador You're here:

KPHL Decoded Metar

PHILADELPHIA in PA, USA
Report Time2017-04-25 06:06:00
UTC Time2017-04-25 06:37:54
Flight Rules mvfr MVFR
Wind050° at 10 kt
W.Decomp.*RWY 08: 9.4 kt HW 3.4 kt LCW
RWY 09: 8.7 kt HW 5 kt LCW
RWY 35: 3.4 kt HW 9.4 kt RCW
W.Rank050° ranks 15
Current wind is above 050° avg. (7.7)
Visibility9999 m
Phenomena:N/A
Clouds:Broken 014 Hf
Broken 035 Hf
Overcast 048 Hf
Expected CloudBase > 1,200 ft AGL from Temp-Dew spread
Ceiling1,400 ft
Temp11°C (ISA -4)
Dew Point08°C (82% RH)
AAT6.9°C
QNH1017 hPa
Density Alt-394 ft
Elevation59 ft
Report Wrong Elevation
Raw Report
KPHL 250606Z 05010KT 10SM BKN014 BKN035 OVC048 11/08 A3002=

Extra information for KPHL:More info

Metar Taf Metar & Taf Last 4 Metars F.Rules Stats Wind Profile Meteogram Temp Stats Airport Information Weather charts Add Link Nearby VenuesMetar ALERT Operation Metar Decoded Social comments

AIRNAV info for KPHL